createdAt,value
2022-09-16T00:00:35.187Z,11.84
2022-09-16T00:01:35.067Z,11.87
2022-09-16T00:02:39.894Z,11.87
2022-09-16T00:03:35.048Z,11.86
2022-09-16T00:04:35.047Z,11.91
2022-09-16T00:05:35.035Z,11.90
2022-09-16T00:06:35.035Z,11.94
2022-09-16T00:07:35.019Z,11.88
2022-09-16T00:08:35.014Z,11.81
2022-09-16T00:09:35.016Z,11.81
2022-09-16T00:10:35.001Z,11.78
2022-09-16T00:11:34.996Z,11.75
2022-09-16T00:12:34.990Z,11.78
2022-09-16T00:13:34.984Z,11.83
2022-09-16T00:14:34.970Z,11.75
2022-09-16T00:15:34.967Z,11.84
2022-09-16T00:16:34.984Z,11.75
2022-09-16T00:17:34.952Z,11.72
2022-09-16T00:18:34.945Z,11.72
2022-09-16T00:19:34.939Z,11.87
2022-09-16T00:20:34.930Z,11.81
2022-09-16T00:21:34.920Z,11.86
2022-09-16T00:22:34.918Z,11.78
2022-09-16T00:23:34.913Z,11.73
2022-09-16T00:24:34.909Z,11.69
2022-09-16T00:25:34.896Z,11.78
2022-09-16T00:26:34.896Z,11.77
2022-09-16T00:27:34.883Z,11.81
2022-09-16T00:28:34.883Z,11.81
2022-09-16T00:29:34.866Z,11.77
2022-09-16T00:30:34.861Z,11.65
2022-09-16T00:31:34.907Z,11.63
2022-09-16T00:32:34.864Z,11.60
2022-09-16T00:33:34.837Z,11.65
2022-09-16T00:34:34.836Z,11.57
2022-09-16T00:35:34.832Z,11.73
2022-09-16T00:36:34.814Z,11.69
2022-09-16T00:37:34.812Z,11.59
2022-09-16T00:38:34.806Z,11.63
2022-09-16T00:39:34.796Z,11.57
2022-09-16T00:40:34.794Z,11.68
2022-09-16T00:41:34.783Z,11.59
2022-09-16T00:42:34.778Z,11.60
2022-09-16T00:43:34.770Z,11.51
2022-09-16T00:44:34.762Z,11.51
2022-09-16T00:45:34.750Z,11.47
2022-09-16T00:46:34.792Z,11.55
2022-09-16T00:47:34.740Z,11.50
2022-09-16T00:48:34.733Z,11.47
2022-09-16T00:49:34.728Z,11.44
2022-09-16T00:50:34.728Z,11.43
2022-09-16T00:51:34.710Z,11.35
2022-09-16T00:52:34.707Z,11.36
2022-09-16T00:53:35.984Z,11.33
2022-09-16T00:54:34.688Z,11.35
2022-09-16T00:55:34.682Z,11.35
2022-09-16T00:56:34.675Z,11.29
2022-09-16T00:57:34.679Z,11.32
2022-09-16T00:58:34.660Z,11.35
2022-09-16T00:59:34.657Z,11.37
2022-09-16T01:00:34.685Z,11.43
2022-09-16T01:01:34.670Z,11.45
2022-09-16T01:02:34.635Z,11.45
2022-09-16T01:03:34.626Z,11.48
2022-09-16T01:04:34.622Z,11.40
2022-09-16T01:05:34.612Z,11.41
2022-09-16T01:06:34.606Z,11.45
2022-09-16T01:07:34.599Z,11.41
2022-09-16T01:08:34.591Z,11.36
2022-09-16T01:09:34.581Z,11.29
2022-09-16T01:10:34.578Z,11.33
2022-09-16T01:11:41.731Z,11.26
2022-09-16T01:13:38.547Z,11.29
2022-09-16T01:14:38.533Z,11.30
2022-09-16T01:16:31.662Z,11.29
2022-09-16T01:17:31.610Z,11.35
2022-09-16T01:19:35.587Z,11.29
2022-09-16T01:20:35.569Z,11.32
2022-09-16T01:22:29.048Z,11.27
2022-09-16T01:23:28.650Z,11.26
2022-09-16T01:25:32.638Z,11.18
2022-09-16T01:26:32.620Z,11.15
2022-09-16T01:28:36.597Z,11.15
2022-09-16T01:29:36.580Z,11.14
2022-09-16T01:31:29.702Z,11.18
2022-09-16T01:32:29.674Z,11.14
2022-09-16T01:34:33.658Z,11.17
2022-09-16T01:35:33.641Z,11.08
2022-09-16T01:37:37.640Z,11.04
2022-09-16T01:38:37.633Z,11.11
2022-09-16T01:40:41.613Z,11.11
2022-09-16T01:41:41.590Z,11.08
2022-09-16T01:43:45.576Z,11.07
2022-09-16T01:44:45.553Z,11.07
2022-09-16T01:46:49.580Z,11.08
2022-09-16T01:47:49.540Z,11.11
2022-09-16T01:49:53.547Z,11.05
2022-09-16T01:50:53.531Z,11.07
2022-09-16T01:52:46.466Z,11.08
2022-09-16T01:53:46.457Z,11.10
2022-09-16T01:55:50.436Z,11.04
2022-09-16T01:56:50.419Z,10.99
2022-09-16T01:58:54.405Z,11.04
2022-09-16T01:59:54.385Z,11.04
2022-09-16T02:01:58.464Z,10.97
2022-09-16T02:02:58.416Z,10.93
2022-09-16T02:05:02.342Z,10.92
2022-09-16T02:06:02.330Z,10.94
2022-09-16T02:08:06.466Z,10.90
2022-09-16T02:09:06.312Z,10.81
2022-09-16T02:11:10.292Z,10.92
2022-09-16T02:12:10.276Z,10.86
2022-09-16T02:14:14.252Z,10.86
2022-09-16T02:15:14.235Z,10.86
2022-09-16T02:17:18.243Z,10.92
2022-09-16T02:18:18.234Z,10.93
2022-09-16T02:20:11.342Z,10.94
2022-09-16T02:21:11.326Z,10.86
2022-09-16T02:23:15.306Z,10.94
2022-09-16T02:24:15.288Z,10.78
2022-09-16T02:26:08.620Z,10.87
2022-09-16T02:27:08.609Z,10.86
2022-09-16T02:29:12.589Z,10.87
2022-09-16T02:30:12.572Z,10.82
2022-09-16T02:32:05.484Z,10.75
2022-09-16T02:33:05.474Z,10.72
2022-09-16T02:35:09.474Z,10.79
2022-09-16T02:36:09.457Z,10.82
2022-09-16T02:38:02.560Z,10.82
2022-09-16T02:39:02.541Z,10.75
2022-09-16T02:40:55.640Z,10.74
2022-09-16T02:41:55.627Z,10.82
2022-09-16T02:43:59.606Z,10.74
2022-09-16T02:44:59.592Z,10.72
2022-09-16T02:47:03.573Z,10.79
2022-09-16T02:48:03.559Z,10.64
2022-09-16T02:50:07.547Z,10.78
2022-09-16T02:51:07.526Z,10.78
2022-09-16T02:53:11.509Z,10.76
2022-09-16T02:54:11.489Z,10.84
2022-09-16T02:56:15.473Z,10.69
2022-09-16T02:57:15.457Z,10.81
2022-09-16T02:59:19.435Z,10.71
2022-09-16T03:00:19.418Z,10.76
2022-09-16T03:02:12.384Z,10.63
2022-09-16T03:03:12.347Z,10.76
2022-09-16T03:05:16.280Z,10.68
2022-09-16T03:06:16.269Z,10.78
2022-09-16T03:08:20.252Z,10.75
2022-09-16T03:09:20.229Z,10.71
2022-09-16T03:11:29.388Z,10.69
2022-09-16T03:12:24.191Z,10.67
2022-09-16T03:14:28.204Z,10.56
2022-09-16T03:15:28.188Z,10.63
2022-09-16T03:17:32.168Z,10.67
2022-09-16T03:18:32.150Z,10.60
2022-09-16T03:20:25.243Z,10.63
2022-09-16T03:21:25.229Z,10.63
2022-09-16T03:23:18.333Z,10.71
2022-09-16T03:24:18.315Z,10.71
2022-09-16T03:26:22.309Z,10.68
2022-09-16T03:27:22.299Z,10.63
2022-09-16T03:29:26.282Z,10.69
2022-09-16T03:30:26.268Z,10.71
2022-09-16T03:32:19.173Z,10.67
2022-09-16T03:33:19.157Z,10.64
2022-09-16T03:35:12.255Z,10.71
2022-09-16T03:36:12.241Z,10.69
2022-09-16T03:38:05.618Z,10.63
2022-09-16T03:39:05.597Z,10.56
2022-09-16T03:40:05.658Z,10.56
2022-09-16T03:41:05.580Z,10.54
2022-09-16T03:42:05.568Z,10.57
2022-09-16T03:43:05.560Z,10.57
2022-09-16T03:44:05.553Z,10.56
2022-09-16T03:45:05.555Z,10.60
2022-09-16T03:46:05.592Z,10.57
2022-09-16T03:47:05.539Z,10.59
2022-09-16T03:48:05.526Z,10.56
2022-09-16T03:49:05.516Z,10.51
2022-09-16T03:50:05.507Z,10.57
2022-09-16T03:51:05.496Z,10.59
2022-09-16T03:52:05.498Z,10.60
2022-09-16T03:53:05.488Z,10.53
2022-09-16T03:54:05.480Z,10.56
2022-09-16T03:55:05.471Z,10.56
2022-09-16T03:56:05.462Z,10.56
2022-09-16T03:57:05.454Z,10.59
2022-09-16T03:58:05.445Z,10.59
2022-09-16T03:59:05.438Z,10.54
2022-09-16T04:00:05.429Z,10.54
2022-09-16T04:01:05.530Z,10.54
2022-09-16T04:02:05.413Z,10.61
2022-09-16T04:03:05.462Z,10.54
2022-09-16T04:04:05.398Z,10.54
2022-09-16T04:05:05.394Z,10.61
2022-09-16T04:06:05.383Z,10.63
2022-09-16T04:07:05.375Z,10.54
2022-09-16T04:08:05.369Z,10.59
2022-09-16T04:09:05.360Z,10.53
2022-09-16T04:10:05.353Z,10.64
2022-09-16T04:11:05.345Z,10.53
2022-09-16T04:12:05.337Z,10.63
2022-09-16T04:13:05.331Z,10.59
2022-09-16T04:14:05.321Z,10.59
2022-09-16T04:15:05.315Z,10.60
2022-09-16T04:16:05.369Z,10.63
2022-09-16T04:17:05.298Z,10.59
2022-09-16T04:18:05.290Z,10.63
2022-09-16T04:19:05.283Z,10.49
2022-09-16T04:20:05.274Z,10.56
2022-09-16T04:21:05.268Z,10.56
2022-09-16T04:22:05.259Z,10.54
2022-09-16T04:23:05.250Z,10.42
2022-09-16T04:24:08.394Z,10.51
2022-09-16T04:25:05.237Z,10.44
2022-09-16T04:26:05.229Z,10.51
2022-09-16T04:27:05.219Z,10.48
2022-09-16T04:28:05.214Z,10.46
2022-09-16T04:29:05.208Z,10.40
2022-09-16T04:30:05.199Z,10.54
2022-09-16T04:31:05.239Z,10.49
2022-09-16T04:32:05.182Z,10.42
2022-09-16T04:33:05.174Z,10.42
2022-09-16T04:34:05.169Z,10.49
2022-09-16T04:35:05.156Z,10.31
2022-09-16T04:36:05.155Z,10.54
2022-09-16T04:37:05.143Z,10.41
2022-09-16T04:38:05.136Z,10.37
2022-09-16T04:39:05.127Z,10.33
2022-09-16T04:40:05.386Z,10.41
2022-09-16T04:41:05.114Z,10.38
2022-09-16T04:42:05.104Z,10.46
2022-09-16T04:43:05.097Z,10.51
2022-09-16T04:44:05.088Z,10.44
2022-09-16T04:45:05.082Z,10.42
2022-09-16T04:46:05.140Z,10.46
2022-09-16T04:47:05.064Z,10.49
2022-09-16T04:48:05.059Z,10.44
2022-09-16T04:49:05.052Z,10.49
2022-09-16T04:50:05.071Z,10.46
2022-09-16T04:51:05.034Z,10.41
2022-09-16T04:52:05.030Z,10.48
2022-09-16T04:53:05.021Z,10.49
2022-09-16T04:54:05.013Z,10.57
2022-09-16T04:55:05.003Z,10.54
2022-09-16T04:56:04.996Z,10.59
2022-09-16T04:57:04.990Z,10.59
2022-09-16T04:58:04.981Z,10.61
2022-09-16T04:59:04.970Z,10.57
2022-09-16T05:00:04.966Z,10.59
2022-09-16T05:01:04.992Z,10.63
2022-09-16T05:02:04.949Z,10.61
2022-09-16T05:03:04.967Z,10.61
2022-09-16T05:04:04.934Z,10.71
2022-09-16T05:05:04.924Z,10.68
2022-09-16T05:06:04.918Z,10.64
2022-09-16T05:07:04.908Z,10.67
2022-09-16T05:08:04.901Z,10.68
2022-09-16T05:09:04.894Z,10.71
2022-09-16T05:10:04.887Z,10.82
2022-09-16T05:11:04.877Z,10.69
2022-09-16T05:12:04.870Z,10.69
2022-09-16T05:13:04.863Z,10.74
2022-09-16T05:14:04.871Z,10.78
2022-09-16T05:15:04.880Z,10.78
2022-09-16T05:16:04.891Z,10.78
2022-09-16T05:17:04.841Z,10.71
2022-09-16T05:18:04.842Z,10.69
2022-09-16T05:19:05.051Z,10.76
2022-09-16T05:20:04.810Z,10.75
2022-09-16T05:21:04.808Z,10.81
2022-09-16T05:22:04.794Z,10.86
2022-09-16T05:23:04.785Z,10.89
2022-09-16T05:24:04.862Z,10.92
2022-09-16T05:25:04.775Z,11.04
2022-09-16T05:26:04.762Z,11.05
2022-09-16T05:27:04.754Z,10.97
2022-09-16T05:28:04.748Z,11.05
2022-09-16T05:29:04.752Z,11.08
2022-09-16T05:30:04.735Z,11.05
2022-09-16T05:31:04.789Z,11.07
2022-09-16T05:32:04.718Z,11.19
2022-09-16T05:33:04.711Z,11.12
2022-09-16T05:34:04.704Z,11.12
2022-09-16T05:35:04.694Z,11.15
2022-09-16T05:36:04.693Z,11.27
2022-09-16T05:37:04.681Z,11.32
2022-09-16T05:38:04.674Z,11.26
2022-09-16T05:39:22.640Z,11.26
2022-09-16T05:40:04.768Z,11.23
2022-09-16T05:41:04.650Z,11.35
2022-09-16T05:42:04.643Z,11.33
2022-09-16T05:43:04.636Z,11.40
2022-09-16T05:44:04.628Z,11.33
2022-09-16T05:45:04.624Z,11.37
2022-09-16T05:46:04.667Z,11.41
2022-09-16T05:47:04.607Z,11.57
2022-09-16T05:48:04.597Z,11.65
2022-09-16T05:49:04.590Z,11.60
2022-09-16T05:50:04.585Z,11.66
2022-09-16T05:51:04.576Z,11.83
2022-09-16T05:52:04.569Z,12.02
2022-09-16T05:53:04.563Z,12.09
2022-09-16T05:54:04.555Z,12.00
2022-09-16T05:55:04.543Z,12.24
2022-09-16T05:56:04.621Z,12.78
2022-09-16T05:57:07.025Z,12.73
2022-09-16T05:58:04.525Z,12.65
2022-09-16T05:59:04.519Z,12.64
2022-09-16T06:00:04.513Z,12.60
2022-09-16T06:01:04.531Z,12.76
2022-09-16T06:02:04.575Z,12.83
2022-09-16T06:03:04.488Z,13.05
2022-09-16T06:04:04.481Z,13.20
2022-09-16T06:05:04.475Z,13.23
2022-09-16T06:06:04.469Z,13.25
2022-09-16T06:07:04.463Z,13.20
2022-09-16T06:08:04.454Z,13.04
2022-09-16T06:09:04.449Z,12.98
2022-09-16T06:10:04.443Z,13.01
2022-09-16T06:11:04.436Z,13.09
2022-09-16T06:12:04.506Z,13.12
2022-09-16T06:13:04.422Z,13.11
2022-09-16T06:14:04.415Z,13.11
2022-09-16T06:15:04.407Z,13.08
2022-09-16T06:16:04.437Z,13.04
2022-09-16T06:17:04.396Z,13.12
2022-09-16T06:18:06.550Z,13.05
2022-09-16T06:19:04.380Z,13.22
2022-09-16T06:20:04.376Z,13.30
2022-09-16T06:21:04.369Z,13.41
2022-09-16T06:22:04.363Z,13.33
2022-09-16T06:23:04.354Z,13.67
2022-09-16T06:24:04.347Z,14.23
2022-09-16T06:25:04.343Z,14.68
2022-09-16T06:26:04.337Z,14.68
2022-09-16T06:27:04.327Z,14.58
2022-09-16T06:28:04.404Z,14.35
2022-09-16T06:29:04.317Z,14.32
2022-09-16T06:30:04.307Z,14.17
2022-09-16T06:31:04.337Z,14.25
2022-09-16T06:32:04.297Z,13.93
2022-09-16T06:33:04.294Z,13.86
2022-09-16T06:34:04.285Z,13.71
2022-09-16T06:35:04.278Z,13.57
2022-09-16T06:36:04.274Z,13.63
2022-09-16T06:37:04.265Z,13.44
2022-09-16T06:38:04.262Z,13.28
2022-09-16T06:39:04.257Z,13.23
2022-09-16T06:40:04.292Z,13.39
2022-09-16T06:41:04.241Z,13.71
2022-09-16T06:42:04.236Z,13.77
2022-09-16T06:43:04.230Z,13.99
2022-09-16T06:44:04.307Z,13.95
2022-09-16T06:45:04.216Z,13.81
2022-09-16T06:46:04.233Z,13.72
2022-09-16T06:47:04.207Z,13.67
2022-09-16T06:48:04.198Z,13.49
2022-09-16T06:49:06.175Z,13.54
2022-09-16T06:50:04.186Z,13.63
2022-09-16T06:51:04.179Z,13.54
2022-09-16T06:52:04.173Z,13.62
2022-09-16T06:53:04.170Z,13.56
2022-09-16T06:54:04.165Z,13.60
2022-09-16T06:55:04.174Z,13.63
2022-09-16T06:56:04.152Z,13.59
2022-09-16T06:57:07.497Z,13.62
2022-09-16T06:58:04.138Z,13.72
2022-09-16T06:59:04.133Z,13.70
2022-09-16T07:00:04.203Z,13.77
2022-09-16T07:01:04.151Z,13.71
2022-09-16T07:02:04.127Z,13.81
2022-09-16T07:03:04.113Z,13.74
2022-09-16T07:04:04.101Z,13.78
2022-09-16T07:05:04.089Z,13.70
2022-09-16T07:06:04.091Z,13.68
2022-09-16T07:07:11.208Z,13.71
2022-09-16T07:08:04.081Z,13.83
2022-09-16T07:09:04.070Z,13.85
2022-09-16T07:10:04.065Z,13.99
2022-09-16T07:11:04.058Z,14.17
2022-09-16T07:12:04.052Z,14.07
2022-09-16T07:13:04.046Z,14.07
2022-09-16T07:14:04.041Z,13.90
2022-09-16T07:15:04.036Z,13.90
2022-09-16T07:16:19.580Z,14.04
2022-09-16T07:17:04.090Z,14.03
2022-09-16T07:18:04.015Z,14.00
2022-09-16T07:19:04.189Z,13.89
2022-09-16T07:20:04.005Z,13.87
2022-09-16T07:21:03.997Z,13.93
2022-09-16T07:22:03.992Z,13.93
2022-09-16T07:23:11.144Z,14.05
2022-09-16T07:25:07.982Z,14.08
2022-09-16T07:26:07.965Z,14.12
2022-09-16T07:28:11.954Z,14.15
2022-09-16T07:29:11.937Z,14.18
2022-09-16T07:31:16.032Z,14.08
2022-09-16T07:32:15.909Z,14.12
2022-09-16T07:34:08.836Z,14.00
2022-09-16T07:35:08.825Z,13.96
2022-09-16T07:37:01.792Z,14.07
2022-09-16T07:38:01.775Z,14.07
2022-09-16T07:40:05.811Z,14.23
2022-09-16T07:41:05.766Z,14.20
2022-09-16T07:43:09.754Z,14.33
2022-09-16T07:44:09.740Z,14.51
2022-09-16T07:46:13.787Z,14.62
2022-09-16T07:47:13.797Z,14.60
2022-09-16T07:49:06.656Z,14.77
2022-09-16T07:50:06.646Z,14.70
2022-09-16T07:51:59.759Z,14.86
2022-09-16T07:52:59.742Z,14.89
2022-09-16T07:55:03.720Z,14.88
2022-09-16T07:56:03.708Z,14.85
2022-09-16T07:58:07.705Z,14.86
2022-09-16T07:59:07.689Z,14.89
2022-09-16T08:01:11.716Z,14.97
2022-09-16T08:02:11.829Z,14.91
2022-09-16T08:04:04.688Z,14.97
2022-09-16T08:05:04.593Z,14.82
2022-09-16T08:07:08.593Z,14.97
2022-09-16T08:08:08.577Z,14.94
2022-09-16T08:10:12.562Z,15.09
2022-09-16T08:11:12.550Z,15.11
2022-09-16T08:13:16.532Z,15.27
2022-09-16T08:14:16.514Z,15.43
2022-09-16T08:16:09.682Z,15.42
2022-09-16T08:17:09.599Z,15.43
2022-09-16T08:19:13.658Z,15.39
2022-09-16T08:20:13.578Z,15.40
2022-09-16T08:22:17.563Z,15.22
2022-09-16T08:23:17.546Z,15.28
2022-09-16T08:25:21.580Z,15.25
2022-09-16T08:26:21.581Z,15.28
2022-09-16T08:28:14.496Z,15.58
2022-09-16T08:29:14.755Z,15.77
2022-09-16T08:31:18.533Z,15.95
2022-09-16T08:32:18.456Z,15.98
2022-09-16T08:34:11.380Z,15.95
2022-09-16T08:35:11.459Z,15.79
2022-09-16T08:37:15.382Z,15.79
2022-09-16T08:38:15.364Z,15.76
2022-09-16T08:40:08.363Z,15.68
2022-09-16T08:41:08.287Z,15.65
2022-09-16T08:43:12.288Z,15.59
2022-09-16T08:44:12.280Z,15.47
2022-09-16T08:46:16.975Z,15.37
2022-09-16T08:47:16.446Z,15.29
2022-09-16T08:49:20.471Z,15.44
2022-09-16T08:50:20.642Z,15.57
2022-09-16T08:52:13.369Z,15.67
2022-09-16T08:53:13.354Z,15.79
2022-09-16T08:55:06.299Z,16.04
2022-09-16T08:56:06.294Z,16.09
2022-09-16T08:57:59.394Z,16.09
2022-09-16T08:58:59.381Z,16.20
2022-09-16T08:59:59.383Z,16.31
2022-09-16T09:00:59.420Z,16.31
2022-09-16T09:02:01.822Z,16.28
2022-09-16T09:02:59.377Z,16.31
2022-09-16T09:03:59.358Z,16.26
2022-09-16T09:04:59.353Z,16.09
2022-09-16T09:05:59.444Z,16.23
2022-09-16T09:06:59.343Z,16.10
2022-09-16T09:07:59.338Z,16.17
2022-09-16T09:08:59.340Z,16.01
2022-09-16T09:09:59.328Z,16.10
2022-09-16T09:10:59.333Z,16.04
2022-09-16T09:11:59.324Z,16.01
2022-09-16T09:13:00.268Z,16.02
2022-09-16T09:13:59.318Z,15.92
2022-09-16T09:14:59.302Z,15.82
2022-09-16T09:15:59.353Z,15.75
2022-09-16T09:16:59.295Z,15.80
2022-09-16T09:17:59.291Z,15.80
2022-09-16T09:18:59.287Z,15.88
2022-09-16T09:19:59.284Z,15.77
2022-09-16T09:20:59.277Z,15.79
2022-09-16T09:21:59.367Z,15.76
2022-09-16T09:22:59.266Z,15.79
2022-09-16T09:23:59.264Z,15.76
2022-09-16T09:24:59.254Z,15.80
2022-09-16T09:25:59.278Z,15.84
2022-09-16T09:26:59.250Z,15.94
2022-09-16T09:27:59.243Z,16.04
2022-09-16T09:28:59.239Z,16.16
2022-09-16T09:29:59.234Z,16.35
2022-09-16T09:30:59.228Z,16.39
2022-09-16T09:31:59.292Z,16.50
2022-09-16T09:32:59.283Z,16.60
2022-09-16T09:33:59.212Z,16.72
2022-09-16T09:34:59.215Z,16.89
2022-09-16T09:35:59.204Z,16.79
2022-09-16T09:36:59.201Z,16.93
2022-09-16T09:37:59.289Z,16.93
2022-09-16T09:38:59.193Z,16.86
2022-09-16T09:39:59.232Z,16.79
2022-09-16T09:40:59.180Z,16.71
2022-09-16T09:41:59.177Z,16.66
2022-09-16T09:42:59.178Z,16.65
2022-09-16T09:43:59.175Z,16.65
2022-09-16T09:45:01.490Z,16.66
2022-09-16T09:45:59.191Z,16.54
2022-09-16T09:46:59.165Z,16.49
2022-09-16T09:47:59.156Z,16.47
2022-09-16T09:48:59.144Z,16.47
2022-09-16T09:49:59.144Z,16.46
2022-09-16T09:50:59.137Z,16.51
2022-09-16T09:51:59.127Z,16.50
2022-09-16T09:52:59.132Z,16.49
2022-09-16T09:53:59.216Z,16.57
2022-09-16T09:54:59.117Z,16.54
2022-09-16T09:55:59.114Z,16.61
2022-09-16T09:56:59.110Z,16.66
2022-09-16T09:57:59.105Z,16.84
2022-09-16T09:58:59.100Z,16.89
2022-09-16T09:59:59.097Z,16.87
2022-09-16T10:00:59.144Z,16.97
2022-09-16T10:01:59.140Z,17.01
2022-09-16T10:02:59.084Z,16.89
2022-09-16T10:03:59.084Z,16.86
2022-09-16T10:04:59.069Z,16.79
2022-09-16T10:05:59.070Z,16.79
2022-09-16T10:06:59.109Z,16.90
2022-09-16T10:07:59.058Z,16.94
2022-09-16T10:08:59.056Z,16.72
2022-09-16T10:09:59.151Z,16.68
2022-09-16T10:10:59.050Z,16.54
2022-09-16T10:11:59.054Z,16.50
2022-09-16T10:12:59.039Z,16.49
2022-09-16T10:13:59.035Z,16.57
2022-09-16T10:14:59.032Z,16.51
2022-09-16T10:15:59.049Z,16.47
2022-09-16T10:16:59.021Z,16.51
2022-09-16T10:17:59.016Z,16.46
2022-09-16T10:18:59.011Z,16.49
2022-09-16T10:19:59.006Z,16.39
2022-09-16T10:20:59.003Z,16.31
2022-09-16T10:21:59.005Z,16.31
2022-09-16T10:22:58.995Z,16.21
2022-09-16T10:23:58.989Z,16.28
2022-09-16T10:24:58.983Z,16.32
2022-09-16T10:25:59.081Z,16.28
2022-09-16T10:26:58.975Z,16.35
2022-09-16T10:27:58.970Z,16.32
2022-09-16T10:28:58.966Z,16.38
2022-09-16T10:29:58.962Z,16.46
2022-09-16T10:30:58.959Z,16.53
2022-09-16T10:31:59.012Z,16.50
2022-09-16T10:32:58.951Z,16.66
2022-09-16T10:33:58.944Z,16.64
2022-09-16T10:34:58.939Z,16.68
2022-09-16T10:35:58.934Z,16.68
2022-09-16T10:36:58.932Z,16.72
2022-09-16T10:37:58.953Z,16.74
2022-09-16T10:39:04.889Z,16.69
2022-09-16T10:39:58.959Z,16.58
2022-09-16T10:40:58.912Z,16.58
2022-09-16T10:41:59.010Z,16.53
2022-09-16T10:42:58.927Z,16.57
2022-09-16T10:43:58.901Z,16.46
2022-09-16T10:44:58.894Z,16.53
2022-09-16T10:45:58.919Z,16.65
2022-09-16T10:46:58.892Z,16.56
2022-09-16T10:48:00.944Z,16.56
2022-09-16T10:48:58.880Z,16.49
2022-09-16T10:49:58.879Z,16.61
2022-09-16T10:50:58.870Z,16.64
2022-09-16T10:51:58.866Z,16.60
2022-09-16T10:52:58.855Z,16.60
2022-09-16T10:53:58.869Z,16.61
2022-09-16T10:54:58.849Z,16.56
2022-09-16T10:55:58.846Z,16.43
2022-09-16T10:56:58.840Z,16.51
2022-09-16T10:57:58.931Z,16.51
2022-09-16T10:58:58.833Z,16.69
2022-09-16T10:59:58.837Z,16.68
2022-09-16T11:00:58.841Z,16.71
2022-09-16T11:01:59.179Z,16.71
2022-09-16T11:02:58.815Z,16.66
2022-09-16T11:03:58.808Z,16.56
2022-09-16T11:04:58.808Z,16.56
2022-09-16T11:05:58.803Z,16.47
2022-09-16T11:06:58.800Z,16.50
2022-09-16T11:07:58.792Z,16.46
2022-09-16T11:08:58.789Z,16.46
2022-09-16T11:09:58.788Z,16.41
2022-09-16T11:10:58.776Z,16.31
2022-09-16T11:11:58.774Z,16.28
2022-09-16T11:12:58.772Z,16.21
2022-09-16T11:13:58.862Z,16.17
2022-09-16T11:14:58.763Z,16.09
2022-09-16T11:15:58.817Z,16.28
2022-09-16T11:16:58.755Z,16.33
2022-09-16T11:17:58.748Z,16.41
2022-09-16T11:18:58.920Z,16.51
2022-09-16T11:19:58.742Z,16.47
2022-09-16T11:20:58.735Z,16.68
2022-09-16T11:21:58.729Z,16.76
2022-09-16T11:22:58.723Z,16.84
2022-09-16T11:23:58.719Z,16.90
2022-09-16T11:24:58.714Z,17.01
2022-09-16T11:25:58.704Z,17.14
2022-09-16T11:26:58.706Z,17.16
2022-09-16T11:27:58.701Z,17.30
2022-09-16T11:28:58.694Z,17.30
2022-09-16T11:29:58.791Z,17.20
2022-09-16T11:30:58.741Z,17.16
2022-09-16T11:31:58.686Z,17.24
2022-09-16T11:33:01.503Z,17.33
2022-09-16T11:33:58.719Z,17.45
2022-09-16T11:34:58.669Z,17.51
2022-09-16T11:35:58.668Z,17.65
2022-09-16T11:36:58.662Z,17.86
2022-09-16T11:37:58.656Z,17.87
2022-09-16T11:38:58.687Z,17.95
2022-09-16T11:39:58.680Z,18.08
2022-09-16T11:40:58.644Z,18.35
2022-09-16T11:41:58.646Z,18.45
2022-09-16T11:42:58.642Z,18.50
2022-09-16T11:43:58.629Z,18.44
2022-09-16T11:44:58.629Z,18.37
2022-09-16T11:45:58.725Z,18.37
2022-09-16T11:46:58.618Z,18.31
2022-09-16T11:47:58.613Z,18.11
2022-09-16T11:48:58.611Z,18.08
2022-09-16T11:49:58.611Z,17.98
2022-09-16T11:50:58.605Z,17.92
2022-09-16T11:51:58.603Z,17.71
2022-09-16T11:53:03.185Z,17.67
2022-09-16T11:53:59.397Z,17.64
2022-09-16T11:54:58.594Z,17.46
2022-09-16T11:55:58.581Z,17.54
2022-09-16T11:56:58.576Z,17.56
2022-09-16T11:57:58.569Z,17.64
2022-09-16T11:58:58.594Z,17.72
2022-09-16T11:59:58.566Z,17.74
2022-09-16T12:00:58.566Z,17.85
2022-09-16T12:01:58.712Z,17.82
2022-09-16T12:02:58.637Z,17.97
2022-09-16T12:03:58.580Z,18.03
2022-09-16T12:04:58.549Z,18.05
2022-09-16T12:05:58.540Z,18.10
2022-09-16T12:06:58.543Z,18.15
2022-09-16T12:07:58.539Z,18.19
2022-09-16T12:08:58.536Z,18.33
2022-09-16T12:09:58.533Z,18.40
2022-09-16T12:10:58.531Z,18.49
2022-09-16T12:11:58.521Z,18.45
2022-09-16T12:12:58.518Z,18.62
2022-09-16T12:14:05.472Z,18.50
2022-09-16T12:15:01.974Z,18.45
2022-09-16T12:15:58.504Z,18.50
2022-09-16T12:16:58.501Z,18.62
2022-09-16T12:17:58.588Z,18.55
2022-09-16T12:18:58.503Z,18.63
2022-09-16T12:19:58.489Z,18.63
2022-09-16T12:20:58.489Z,18.73
2022-09-16T12:21:58.481Z,18.63
2022-09-16T12:22:58.480Z,18.50
2022-09-16T12:23:58.477Z,18.71
2022-09-16T12:24:58.471Z,18.66
2022-09-16T12:25:58.474Z,18.77
2022-09-16T12:26:58.466Z,18.95
2022-09-16T12:27:58.465Z,18.93
2022-09-16T12:28:58.458Z,18.99
2022-09-16T12:29:58.453Z,18.95
2022-09-16T12:30:58.475Z,19.08
2022-09-16T12:31:58.446Z,19.00
2022-09-16T12:32:58.446Z,19.16
2022-09-16T12:33:58.534Z,19.45
2022-09-16T12:34:58.442Z,19.54
2022-09-16T12:35:58.447Z,19.47
2022-09-16T12:36:58.429Z,19.44
2022-09-16T12:37:58.440Z,19.44
2022-09-16T12:38:58.422Z,19.45
2022-09-16T12:39:58.452Z,19.44
2022-09-16T12:40:58.416Z,19.44
2022-09-16T12:41:58.411Z,19.45
2022-09-16T12:42:58.412Z,19.41
2022-09-16T12:44:06.489Z,19.33
2022-09-16T12:44:58.401Z,19.30
2022-09-16T12:45:58.401Z,19.12
2022-09-16T12:46:58.398Z,19.00
2022-09-16T12:47:58.396Z,18.75
2022-09-16T12:48:58.390Z,18.65
2022-09-16T12:49:58.479Z,18.60
2022-09-16T12:50:58.389Z,18.47
2022-09-16T12:51:58.382Z,18.52
2022-09-16T12:52:58.381Z,18.53
2022-09-16T12:53:58.375Z,18.53
2022-09-16T12:55:07.585Z,18.55
2022-09-16T12:55:58.370Z,18.70
2022-09-16T12:56:58.364Z,18.74
2022-09-16T12:57:58.456Z,18.68
2022-09-16T12:58:58.359Z,18.70
2022-09-16T12:59:58.356Z,18.84
2022-09-16T13:00:58.355Z,18.83
2022-09-16T13:02:00.022Z,18.84
2022-09-16T13:02:58.375Z,18.93
2022-09-16T13:03:58.393Z,18.77
2022-09-16T13:04:58.341Z,18.77
2022-09-16T13:05:58.447Z,18.74
2022-09-16T13:06:58.338Z,18.71
2022-09-16T13:07:58.328Z,18.58
2022-09-16T13:08:58.330Z,18.56
2022-09-16T13:09:58.323Z,18.47
2022-09-16T13:11:19.299Z,18.43
2022-09-16T13:12:58.313Z,18.31
2022-09-16T13:13:58.308Z,18.13
2022-09-16T13:14:58.306Z,18.18
2022-09-16T13:15:58.349Z,18.07
2022-09-16T13:16:58.300Z,18.04
2022-09-16T13:17:58.317Z,18.05
2022-09-16T13:18:58.303Z,18.00
2022-09-16T13:19:58.290Z,17.95
2022-09-16T13:20:58.293Z,17.78
2022-09-16T13:21:58.376Z,17.79
2022-09-16T13:22:58.282Z,17.71
2022-09-16T13:24:05.429Z,17.45
2022-09-16T13:25:51.221Z,17.33
2022-09-16T13:26:51.204Z,17.24
2022-09-16T13:27:51.199Z,17.19
2022-09-16T13:28:51.197Z,17.11
2022-09-16T13:29:51.191Z,17.12
2022-09-16T13:30:51.202Z,17.04
2022-09-16T13:31:51.281Z,17.08
2022-09-16T13:32:51.181Z,16.94
2022-09-16T13:33:51.177Z,17.04
2022-09-16T13:34:51.171Z,17.12
2022-09-16T13:35:51.169Z,17.22
2022-09-16T13:36:51.166Z,17.26
2022-09-16T13:37:51.256Z,17.31
2022-09-16T13:38:51.158Z,17.38
2022-09-16T13:39:51.181Z,17.42
2022-09-16T13:40:51.147Z,17.64
2022-09-16T13:41:51.144Z,17.71
2022-09-16T13:42:51.143Z,17.76
2022-09-16T13:43:51.139Z,17.94
2022-09-16T13:44:51.132Z,17.92
2022-09-16T13:45:51.150Z,18.08
2022-09-16T13:46:51.123Z,18.11
2022-09-16T13:47:51.119Z,18.13
2022-09-16T13:48:51.115Z,18.23
2022-09-16T13:49:51.113Z,18.31
2022-09-16T13:50:51.110Z,18.31
2022-09-16T13:51:51.106Z,18.29
2022-09-16T13:52:51.098Z,18.33
2022-09-16T13:53:51.186Z,18.35
2022-09-16T13:55:09.948Z,18.55
2022-09-16T13:55:51.096Z,18.47
2022-09-16T13:56:51.086Z,18.53
2022-09-16T13:57:51.082Z,18.50
2022-09-16T13:58:51.080Z,18.56
2022-09-16T13:59:51.118Z,18.47
2022-09-16T14:00:51.072Z,18.41
2022-09-16T14:01:59.395Z,18.49
2022-09-16T14:02:51.176Z,18.53
2022-09-16T14:03:51.058Z,18.59
2022-09-16T14:04:51.056Z,18.53
2022-09-16T14:05:51.052Z,18.59
2022-09-16T14:06:51.047Z,18.53
2022-09-16T14:07:51.045Z,18.37
2022-09-16T14:08:51.801Z,18.40
2022-09-16T14:09:54.812Z,18.25
2022-09-16T14:10:51.036Z,18.25
2022-09-16T14:11:51.029Z,18.29
2022-09-16T14:12:51.028Z,18.13
2022-09-16T14:13:51.024Z,18.13
2022-09-16T14:14:51.020Z,18.11
2022-09-16T14:15:51.044Z,18.01